sensor_id;sensor_type;location;lat;lon;timestamp;pressure;altitude;pressure_sealevel;temperature;humidity
80938;BME280;70395;51.382;7.074;2023-07-16T00:01:56;99790.91;;;22.29;53.99
80938;BME280;70395;51.382;7.074;2023-07-16T00:04:22;99789.72;;;22.25;54.27
80938;BME280;70395;51.382;7.074;2023-07-16T00:06:48;99783.91;;;22.21;54.34
80938;BME280;70395;51.382;7.074;2023-07-16T00:09:13;99788.16;;;22.17;53.90
80938;BME280;70395;51.382;7.074;2023-07-16T00:11:39;99786.50;;;22.16;53.75
80938;BME280;70395;51.382;7.074;2023-07-16T00:14:05;99792.22;;;22.14;54.21
80938;BME280;70395;51.382;7.074;2023-07-16T00:16:31;99787.56;;;22.15;54.63
80938;BME280;70395;51.382;7.074;2023-07-16T00:18:57;99787.56;;;22.15;54.44
80938;BME280;70395;51.382;7.074;2023-07-16T00:21:24;99795.53;;;22.16;54.80
80938;BME280;70395;51.382;7.074;2023-07-16T00:23:49;99793.84;;;22.15;54.39
80938;BME280;70395;51.382;7.074;2023-07-16T00:26:16;99794.69;;;22.16;54.66
80938;BME280;70395;51.382;7.074;2023-07-16T00:28:41;99798.03;;;22.18;54.95
80938;BME280;70395;51.382;7.074;2023-07-16T00:31:07;99789.25;;;22.16;54.92
80938;BME280;70395;51.382;7.074;2023-07-16T00:33:33;99797.06;;;22.12;55.09
80938;BME280;70395;51.382;7.074;2023-07-16T00:35:59;99801.56;;;22.07;55.03
80938;BME280;70395;51.382;7.074;2023-07-16T00:38:25;99797.63;;;22.02;55.28
80938;BME280;70395;51.382;7.074;2023-07-16T00:40:51;99810.69;;;22.00;55.14
80938;BME280;70395;51.382;7.074;2023-07-16T00:43:17;99816.97;;;22.01;54.98
80938;BME280;70395;51.382;7.074;2023-07-16T00:45:46;99824.13;;;22.02;55.35
80938;BME280;70395;51.382;7.074;2023-07-16T00:48:12;99816.53;;;22.04;55.61
80938;BME280;70395;51.382;7.074;2023-07-16T00:50:40;99818.88;;;22.00;55.94
80938;BME280;70395;51.382;7.074;2023-07-16T00:53:07;99819.38;;;21.97;55.47
80938;BME280;70395;51.382;7.074;2023-07-16T00:55:35;99822.19;;;21.90;55.82
80938;BME280;70395;51.382;7.074;2023-07-16T00:58:07;99819.97;;;21.80;55.62
80938;BME280;70395;51.382;7.074;2023-07-16T01:00:35;99818.19;;;21.74;56.46
80938;BME280;70395;51.382;7.074;2023-07-16T01:03:08;99825.88;;;21.65;56.23
80938;BME280;70395;51.382;7.074;2023-07-16T01:08:09;99829.03;;;21.50;56.71
80938;BME280;70395;51.382;7.074;2023-07-16T01:10:37;99827.44;;;21.42;56.52
80938;BME280;70395;51.382;7.074;2023-07-16T01:13:04;99829.19;;;21.36;56.98
80938;BME280;70395;51.382;7.074;2023-07-16T01:15:30;99822.16;;;21.29;57.18
80938;BME280;70395;51.382;7.074;2023-07-16T01:17:56;99822.84;;;21.24;57.07
80938;BME280;70395;51.382;7.074;2023-07-16T01:20:21;99822.09;;;21.17;57.70
80938;BME280;70395;51.382;7.074;2023-07-16T01:23:35;99830.59;;;21.08;57.67
80938;BME280;70395;51.382;7.074;2023-07-16T01:26:18;99828.81;;;20.95;57.50
80938;BME280;70395;51.382;7.074;2023-07-16T01:31:45;99843.41;;;20.82;58.00
80938;BME280;70395;51.382;7.074;2023-07-16T01:34:13;99839.91;;;20.75;57.97
80938;BME280;70395;51.382;7.074;2023-07-16T01:36:40;99836.00;;;20.70;58.29
80938;BME280;70395;51.382;7.074;2023-07-16T01:39:06;99832.91;;;20.67;58.10
80938;BME280;70395;51.382;7.074;2023-07-16T01:41:32;99836.75;;;20.59;58.56
80938;BME280;70395;51.382;7.074;2023-07-16T01:43:58;99839.28;;;20.54;58.44
80938;BME280;70395;51.382;7.074;2023-07-16T01:46:25;99837.25;;;20.49;58.60
80938;BME280;70395;51.382;7.074;2023-07-16T01:48:51;99838.53;;;20.46;58.47
80938;BME280;70395;51.382;7.074;2023-07-16T01:51:17;99846.94;;;20.45;58.51
80938;BME280;70395;51.382;7.074;2023-07-16T01:53:43;99847.97;;;20.44;58.34
80938;BME280;70395;51.382;7.074;2023-07-16T01:56:08;99852.56;;;20.43;58.04
80938;BME280;70395;51.382;7.074;2023-07-16T01:58:34;99852.81;;;20.42;58.21
80938;BME280;70395;51.382;7.074;2023-07-16T02:01:00;99855.69;;;20.47;58.36
80938;BME280;70395;51.382;7.074;2023-07-16T02:03:25;99860.47;;;20.52;58.77
80938;BME280;70395;51.382;7.074;2023-07-16T02:05:51;99853.28;;;20.57;58.74
80938;BME280;70395;51.382;7.074;2023-07-16T02:08:17;99856.16;;;20.63;58.37
80938;BME280;70395;51.382;7.074;2023-07-16T02:10:49;99865.34;;;20.68;58.42
80938;BME280;70395;51.382;7.074;2023-07-16T02:13:15;99863.38;;;20.76;58.20
80938;BME280;70395;51.382;7.074;2023-07-16T02:15:43;99863.31;;;20.82;58.64
80938;BME280;70395;51.382;7.074;2023-07-16T02:18:10;99863.25;;;20.89;58.07
80938;BME280;70395;51.382;7.074;2023-07-16T02:20:36;99868.66;;;20.96;58.54
80938;BME280;70395;51.382;7.074;2023-07-16T02:23:02;99871.72;;;21.00;58.73
80938;BME280;70395;51.382;7.074;2023-07-16T02:25:28;99871.31;;;21.03;58.32
80938;BME280;70395;51.382;7.074;2023-07-16T02:27:53;99867.31;;;21.06;58.56
80938;BME280;70395;51.382;7.074;2023-07-16T02:30:19;99870.19;;;21.11;58.54
80938;BME280;70395;51.382;7.074;2023-07-16T02:32:45;99867.81;;;21.14;58.68
80938;BME280;70395;51.382;7.074;2023-07-16T02:35:11;99878.88;;;21.20;58.46
80938;BME280;70395;51.382;7.074;2023-07-16T02:37:37;99875.94;;;21.21;58.16
80938;BME280;70395;51.382;7.074;2023-07-16T02:40:03;99883.66;;;21.24;58.25
80938;BME280;70395;51.382;7.074;2023-07-16T02:42:29;99892.22;;;21.28;58.13
80938;BME280;70395;51.382;7.074;2023-07-16T02:44:55;99894.47;;;21.31;58.22
80938;BME280;70395;51.382;7.074;2023-07-16T02:47:21;99892.13;;;21.35;58.38
80938;BME280;70395;51.382;7.074;2023-07-16T02:49:50;99888.56;;;21.34;58.14
80938;BME280;70395;51.382;7.074;2023-07-16T02:52:16;99892.13;;;21.35;58.50
80938;BME280;70395;51.382;7.074;2023-07-16T02:54:42;99887.75;;;21.34;58.30
80938;BME280;70395;51.382;7.074;2023-07-16T02:57:08;99899.94;;;21.31;57.99
80938;BME280;70395;51.382;7.074;2023-07-16T02:59:34;99897.06;;;21.26;57.92
80938;BME280;70395;51.382;7.074;2023-07-16T03:01:59;99900.09;;;21.18;58.22
80938;BME280;70395;51.382;7.074;2023-07-16T03:04:25;99900.97;;;21.11;58.06
80938;BME280;70395;51.382;7.074;2023-07-16T03:06:51;99908.63;;;21.02;58.33
80938;BME280;70395;51.382;7.074;2023-07-16T03:09:17;99907.84;;;20.95;58.53
80938;BME280;70395;51.382;7.074;2023-07-16T03:11:44;99907.31;;;20.86;58.48
80938;BME280;70395;51.382;7.074;2023-07-16T03:14:10;99913.63;;;20.80;58.16
80938;BME280;70395;51.382;7.074;2023-07-16T03:16:35;99922.31;;;20.70;58.62
80938;BME280;70395;51.382;7.074;2023-07-16T03:19:01;99915.03;;;20.64;57.91
80938;BME280;70395;51.382;7.074;2023-07-16T03:21:27;99921.59;;;20.56;58.46
80938;BME280;70395;51.382;7.074;2023-07-16T03:23:53;99924.59;;;20.47;58.33
80938;BME280;70395;51.382;7.074;2023-07-16T03:26:18;99923.00;;;20.40;58.60
80938;BME280;70395;51.382;7.074;2023-07-16T03:28:44;99925.75;;;20.33;58.19
80938;BME280;70395;51.382;7.074;2023-07-16T03:31:10;99928.50;;;20.26;58.50
80938;BME280;70395;51.382;7.074;2023-07-16T03:33:35;99935.88;;;20.19;58.36
80938;BME280;70395;51.382;7.074;2023-07-16T03:36:01;99929.47;;;20.13;58.75
80938;BME280;70395;51.382;7.074;2023-07-16T03:38:27;99924.59;;;20.08;58.48
80938;BME280;70395;51.382;7.074;2023-07-16T03:40:53;99936.38;;;20.02;58.08
80938;BME280;70395;51.382;7.074;2023-07-16T03:43:18;99932.63;;;19.96;58.01
80938;BME280;70395;51.382;7.074;2023-07-16T03:45:45;99943.13;;;19.92;57.47
80938;BME280;70395;51.382;7.074;2023-07-16T03:48:10;99949.00;;;19.89;57.44
80938;BME280;70395;51.382;7.074;2023-07-16T03:50:36;99948.63;;;19.86;57.76
80938;BME280;70395;51.382;7.074;2023-07-16T03:53:03;99961.56;;;19.84;57.36
80938;BME280;70395;51.382;7.074;2023-07-16T03:55:29;99964.75;;;19.80;57.47
80938;BME280;70395;51.382;7.074;2023-07-16T03:57:55;99965.16;;;19.77;57.22
80938;BME280;70395;51.382;7.074;2023-07-16T04:00:21;99972.72;;;19.75;57.07
80938;BME280;70395;51.382;7.074;2023-07-16T04:02:47;99962.25;;;19.72;56.51
80938;BME280;70395;51.382;7.074;2023-07-16T04:05:12;99975.25;;;19.70;56.73
80938;BME280;70395;51.382;7.074;2023-07-16T04:07:38;99982.56;;;19.69;56.97
80938;BME280;70395;51.382;7.074;2023-07-16T04:10:05;99985.28;;;19.69;57.12
80938;BME280;70395;51.382;7.074;2023-07-16T04:12:31;99986.34;;;19.68;57.09
80938;BME280;70395;51.382;7.074;2023-07-16T04:15:00;99983.63;;;19.68;56.63
80938;BME280;70395;51.382;7.074;2023-07-16T04:17:26;99989.88;;;19.69;56.47
80938;BME280;70395;51.382;7.074;2023-07-16T04:19:52;99991.78;;;19.68;56.96
80938;BME280;70395;51.382;7.074;2023-07-16T04:22:18;99994.28;;;19.70;56.56
80938;BME280;70395;51.382;7.074;2023-07-16T04:24:44;99989.69;;;19.71;56.68
80938;BME280;70395;51.382;7.074;2023-07-16T04:27:09;99992.41;;;19.71;56.64
80938;BME280;70395;51.382;7.074;2023-07-16T04:29:35;99995.72;;;19.73;55.95
80938;BME280;70395;51.382;7.074;2023-07-16T04:32:02;99990.06;;;19.74;56.37
80938;BME280;70395;51.382;7.074;2023-07-16T04:34:28;99998.03;;;19.76;56.12
80938;BME280;70395;51.382;7.074;2023-07-16T04:36:54;100002.41;;;19.77;55.96
80938;BME280;70395;51.382;7.074;2023-07-16T04:39:20;100007.19;;;19.81;55.76
80938;BME280;70395;51.382;7.074;2023-07-16T04:41:45;100006.16;;;19.83;55.63
80938;BME280;70395;51.382;7.074;2023-07-16T04:44:11;100007.63;;;19.85;55.72
80938;BME280;70395;51.382;7.074;2023-07-16T04:46:37;100003.41;;;19.89;55.36
80938;BME280;70395;51.382;7.074;2023-07-16T04:49:04;100010.31;;;19.92;54.92
80938;BME280;70395;51.382;7.074;2023-07-16T04:51:30;100017.81;;;19.97;55.01
80938;BME280;70395;51.382;7.074;2023-07-16T04:53:56;100018.44;;;19.99;55.05
80938;BME280;70395;51.382;7.074;2023-07-16T04:56:22;100021.78;;;20.01;54.96
80938;BME280;70395;51.382;7.074;2023-07-16T04:58:47;100025.75;;;20.05;55.27
80938;BME280;70395;51.382;7.074;2023-07-16T05:01:13;100022.56;;;20.08;54.64
80938;BME280;70395;51.382;7.074;2023-07-16T05:03:39;100023.03;;;20.12;54.50
80938;BME280;70395;51.382;7.074;2023-07-16T05:06:05;100026.38;;;20.14;54.22
80938;BME280;70395;51.382;7.074;2023-07-16T05:08:31;100025.09;;;20.17;54.25
80938;BME280;70395;51.382;7.074;2023-07-16T05:10:56;100024.44;;;20.21;54.08
80938;BME280;70395;51.382;7.074;2023-07-16T05:13:22;100024.84;;;20.25;53.76
80938;BME280;70395;51.382;7.074;2023-07-16T05:15:48;100037.81;;;20.30;53.59
80938;BME280;70395;51.382;7.074;2023-07-16T05:18:15;100026.28;;;20.34;53.91
80938;BME280;70395;51.382;7.074;2023-07-16T05:20:41;100030.81;;;20.41;53.28
80938;BME280;70395;51.382;7.074;2023-07-16T05:23:07;100033.50;;;20.47;53.30
80938;BME280;70395;51.382;7.074;2023-07-16T05:25:32;100036.22;;;20.54;53.30
80938;BME280;70395;51.382;7.074;2023-07-16T05:27:58;100041.84;;;20.59;53.21
80938;BME280;70395;51.382;7.074;2023-07-16T05:30:24;100038.44;;;20.64;52.93
80938;BME280;70395;51.382;7.074;2023-07-16T05:32:50;100035.25;;;20.67;53.20
80938;BME280;70395;51.382;7.074;2023-07-16T05:35:15;100038.41;;;20.71;52.63
80938;BME280;70395;51.382;7.074;2023-07-16T05:37:41;100033.31;;;20.75;52.31
80938;BME280;70395;51.382;7.074;2023-07-16T05:40:07;100041.06;;;20.78;52.38
80938;BME280;70395;51.382;7.074;2023-07-16T05:42:36;100036.84;;;20.82;52.35
80938;BME280;70395;51.382;7.074;2023-07-16T05:45:02;100050.03;;;20.85;52.09
80938;BME280;70395;51.382;7.074;2023-07-16T05:47:28;100050.63;;;20.87;51.67
80938;BME280;70395;51.382;7.074;2023-07-16T05:49:54;100041.19;;;20.90;51.90
80938;BME280;70395;51.382;7.074;2023-07-16T05:52:20;100056.88;;;20.95;51.38
80938;BME280;70395;51.382;7.074;2023-07-16T05:54:46;100060.66;;;21.00;51.33
80938;BME280;70395;51.382;7.074;2023-07-16T05:57:12;100056.22;;;21.06;51.31
80938;BME280;70395;51.382;7.074;2023-07-16T05:59:37;100060.38;;;21.09;50.66
80938;BME280;70395;51.382;7.074;2023-07-16T06:02:04;100059.72;;;21.13;50.76
80938;BME280;70395;51.382;7.074;2023-07-16T06:04:30;100067.81;;;21.20;50.28
80938;BME280;70395;51.382;7.074;2023-07-16T06:06:57;100079.09;;;21.24;50.62
80938;BME280;70395;51.382;7.074;2023-07-16T06:09:23;100074.91;;;21.28;50.01
80938;BME280;70395;51.382;7.074;2023-07-16T06:11:49;100076.09;;;21.32;49.79
80938;BME280;70395;51.382;7.074;2023-07-16T06:14:16;100080.66;;;21.38;49.18
80938;BME280;70395;51.382;7.074;2023-07-16T06:16:42;100078.09;;;21.44;49.67
80938;BME280;70395;51.382;7.074;2023-07-16T06:19:08;100086.44;;;21.49;49.34
80938;BME280;70395;51.382;7.074;2023-07-16T06:21:33;100085.75;;;21.54;48.89
80938;BME280;70395;51.382;7.074;2023-07-16T06:23:59;100084.03;;;21.59;48.50
80938;BME280;70395;51.382;7.074;2023-07-16T06:26:25;100094.03;;;21.66;48.53
80938;BME280;70395;51.382;7.074;2023-07-16T06:28:51;100084.13;;;21.71;48.30
80938;BME280;70395;51.382;7.074;2023-07-16T06:31:17;100084.06;;;21.78;48.38
80938;BME280;70395;51.382;7.074;2023-07-16T06:33:43;100100.16;;;21.87;47.81
80938;BME280;70395;51.382;7.074;2023-07-16T06:36:09;100086.88;;;21.90;48.47
80938;BME280;70395;51.382;7.074;2023-07-16T06:38:35;100101.13;;;21.92;47.64
80938;BME280;70395;51.382;7.074;2023-07-16T06:41:01;100101.97;;;21.93;46.63
80938;BME280;70395;51.382;7.074;2023-07-16T06:43:27;100108.28;;;21.93;47.53
80938;BME280;70395;51.382;7.074;2023-07-16T06:45:53;100110.78;;;21.95;46.80
80938;BME280;70395;51.382;7.074;2023-07-16T06:48:19;100109.72;;;21.96;46.85
80938;BME280;70395;51.382;7.074;2023-07-16T06:50:45;100101.94;;;22.00;47.16
80938;BME280;70395;51.382;7.074;2023-07-16T06:53:11;100106.47;;;22.06;47.23
80938;BME280;70395;51.382;7.074;2023-07-16T06:55:37;100098.19;;;22.13;47.16
80938;BME280;70395;51.382;7.074;2023-07-16T06:58:03;100101.66;;;22.20;46.18
80938;BME280;70395;51.382;7.074;2023-07-16T07:00:29;100104.78;;;22.24;46.85
80938;BME280;70395;51.382;7.074;2023-07-16T07:02:55;100087.47;;;22.30;46.38
80938;BME280;70395;51.382;7.074;2023-07-16T07:05:21;100095.81;;;22.35;46.19
80938;BME280;70395;51.382;7.074;2023-07-16T07:07:47;100092.41;;;22.40;46.15
80938;BME280;70395;51.382;7.074;2023-07-16T07:10:13;100091.25;;;22.48;45.66
80938;BME280;70395;51.382;7.074;2023-07-16T07:12:39;100096.84;;;22.53;46.03
80938;BME280;70395;51.382;7.074;2023-07-16T07:15:07;100088.56;;;22.60;45.84
80938;BME280;70395;51.382;7.074;2023-07-16T07:17:33;100095.59;;;22.68;45.56
80938;BME280;70395;51.382;7.074;2023-07-16T07:20:00;100098.03;;;22.76;45.73
80938;BME280;70395;51.382;7.074;2023-07-16T07:22:26;100099.38;;;22.86;44.36
80938;BME280;70395;51.382;7.074;2023-07-16T07:24:52;100103.66;;;22.93;44.13
80938;BME280;70395;51.382;7.074;2023-07-16T07:27:18;100099.63;;;22.96;44.00
80938;BME280;70395;51.382;7.074;2023-07-16T07:29:43;100099.75;;;23.01;44.33
80938;BME280;70395;51.382;7.074;2023-07-16T07:32:09;100098.25;;;23.05;43.72
80938;BME280;70395;51.382;7.074;2023-07-16T07:34:35;100109.91;;;23.13;43.92
80938;BME280;70395;51.382;7.074;2023-07-16T07:37:01;100109.53;;;23.21;44.38
80938;BME280;70395;51.382;7.074;2023-07-16T07:39:26;100098.13;;;23.24;42.72
80938;BME280;70395;51.382;7.074;2023-07-16T07:41:52;100104.44;;;23.25;42.76
80938;BME280;70395;51.382;7.074;2023-07-16T07:44:18;100098.47;;;23.28;43.09
80938;BME280;70395;51.382;7.074;2023-07-16T07:46:44;100107.91;;;23.32;42.96
80938;BME280;70395;51.382;7.074;2023-07-16T07:49:09;100106.94;;;23.38;41.94
80938;BME280;70395;51.382;7.074;2023-07-16T07:51:35;100116.34;;;23.43;42.18
80938;BME280;70395;51.382;7.074;2023-07-16T07:54:01;100111.25;;;23.46;41.92
80938;BME280;70395;51.382;7.074;2023-07-16T07:56:27;100103.88;;;23.47;42.42
80938;BME280;70395;51.382;7.074;2023-07-16T07:58:52;100108.41;;;23.53;42.59
80938;BME280;70395;51.382;7.074;2023-07-16T08:01:18;100121.38;;;23.58;41.87
80938;BME280;70395;51.382;7.074;2023-07-16T08:03:44;100122.69;;;23.67;42.49
80938;BME280;70395;51.382;7.074;2023-07-16T08:06:09;100114.38;;;23.74;42.37
80938;BME280;70395;51.382;7.074;2023-07-16T08:08:37;100104.13;;;23.81;42.33
80938;BME280;70395;51.382;7.074;2023-07-16T08:11:03;100119.56;;;23.88;40.99
80938;BME280;70395;51.382;7.074;2023-07-16T08:13:29;100121.84;;;23.91;41.01
80938;BME280;70395;51.382;7.074;2023-07-16T08:15:54;100130.19;;;23.96;40.76
80938;BME280;70395;51.382;7.074;2023-07-16T08:18:20;100125.88;;;24.00;40.79
80938;BME280;70395;51.382;7.074;2023-07-16T08:20:47;100122.41;;;24.05;40.21
80938;BME280;70395;51.382;7.074;2023-07-16T08:23:13;100134.53;;;24.09;39.68
80938;BME280;70395;51.382;7.074;2023-07-16T08:25:39;100137.63;;;24.13;40.02
80938;BME280;70395;51.382;7.074;2023-07-16T08:28:05;100138.94;;;24.22;39.67
80938;BME280;70395;51.382;7.074;2023-07-16T08:30:32;100136.66;;;24.31;39.68
80938;BME280;70395;51.382;7.074;2023-07-16T08:32:59;100148.69;;;24.42;38.89
80938;BME280;70395;51.382;7.074;2023-07-16T08:35:24;100151.25;;;24.49;39.02
80938;BME280;70395;51.382;7.074;2023-07-16T08:37:50;100140.78;;;24.58;39.12
80938;BME280;70395;51.382;7.074;2023-07-16T08:40:16;100152.75;;;24.69;39.37
80938;BME280;70395;51.382;7.074;2023-07-16T08:42:45;100147.78;;;24.83;38.59
80938;BME280;70395;51.382;7.074;2023-07-16T08:45:12;100151.88;;;24.97;38.98
80938;BME280;70395;51.382;7.074;2023-07-16T08:47:39;100158.19;;;25.10;39.09
80938;BME280;70395;51.382;7.074;2023-07-16T08:50:06;100149.75;;;25.29;38.79
80938;BME280;70395;51.382;7.074;2023-07-16T08:52:31;100134.44;;;25.50;39.07
80938;BME280;70395;51.382;7.074;2023-07-16T08:54:57;100153.38;;;25.69;38.07
80938;BME280;70395;51.382;7.074;2023-07-16T08:57:23;100155.53;;;25.84;37.18
80938;BME280;70395;51.382;7.074;2023-07-16T08:59:51;100158.66;;;25.93;37.06
80938;BME280;70395;51.382;7.074;2023-07-16T09:02:18;100158.31;;;26.07;36.91
80938;BME280;70395;51.382;7.074;2023-07-16T09:04:47;100159.53;;;26.16;37.25
80938;BME280;70395;51.382;7.074;2023-07-16T09:07:14;100157.00;;;26.32;37.01
80938;BME280;70395;51.382;7.074;2023-07-16T09:09:40;100161.19;;;26.40;35.65
80938;BME280;70395;51.382;7.074;2023-07-16T09:12:06;100173.69;;;26.48;36.41
80938;BME280;70395;51.382;7.074;2023-07-16T09:14:36;100163.19;;;26.67;35.71
80938;BME280;70395;51.382;7.074;2023-07-16T09:17:02;100173.91;;;26.91;35.69
80938;BME280;70395;51.382;7.074;2023-07-16T09:19:32;100168.59;;;27.40;35.74
80938;BME280;70395;51.382;7.074;2023-07-16T09:21:58;100171.59;;;27.76;34.14
80938;BME280;70395;51.382;7.074;2023-07-16T09:24:24;100173.84;;;28.28;33.37
80938;BME280;70395;51.382;7.074;2023-07-16T09:26:54;100167.38;;;28.76;32.44
80938;BME280;70395;51.382;7.074;2023-07-16T09:29:25;100175.22;;;29.27;31.39
80938;BME280;70395;51.382;7.074;2023-07-16T09:32:01;100176.56;;;29.87;31.23
80938;BME280;70395;51.382;7.074;2023-07-16T09:34:31;100170.66;;;30.25;30.12
80938;BME280;70395;51.382;7.074;2023-07-16T09:36:59;100173.56;;;30.60;29.37
80938;BME280;70395;51.382;7.074;2023-07-16T09:39:26;100181.59;;;30.56;29.49
80938;BME280;70395;51.382;7.074;2023-07-16T09:41:53;100197.63;;;30.54;29.07
80938;BME280;70395;51.382;7.074;2023-07-16T09:44:20;100179.69;;;30.52;29.44
80938;BME280;70395;51.382;7.074;2023-07-16T09:46:47;100182.81;;;30.80;29.21
80938;BME280;70395;51.382;7.074;2023-07-16T09:49:15;100193.44;;;31.13;28.35
80938;BME280;70395;51.382;7.074;2023-07-16T09:51:44;100198.91;;;31.23;28.69
80938;BME280;70395;51.382;7.074;2023-07-16T09:54:14;100190.66;;;31.53;27.68
80938;BME280;70395;51.382;7.074;2023-07-16T09:56:47;100193.66;;;31.57;27.44
80938;BME280;70395;51.382;7.074;2023-07-16T09:59:16;100193.44;;;31.13;27.88
80938;BME280;70395;51.382;7.074;2023-07-16T10:01:43;100188.97;;;30.72;27.80
80938;BME280;70395;51.382;7.074;2023-07-16T10:04:17;100185.31;;;30.82;28.15
80938;BME280;70395;51.382;7.074;2023-07-16T10:06:55;100198.31;;;31.62;28.32
80938;BME280;70395;51.382;7.074;2023-07-16T10:12:18;100197.84;;;32.97;26.52
80938;BME280;70395;51.382;7.074;2023-07-16T10:14:51;100197.88;;;32.77;26.08
80938;BME280;70395;51.382;7.074;2023-07-16T10:17:26;100205.34;;;32.33;25.99
80938;BME280;70395;51.382;7.074;2023-07-16T10:25:00;100214.31;;;31.35;26.55
80938;BME280;70395;51.382;7.074;2023-07-16T10:27:32;100192.47;;;30.88;27.28
80938;BME280;70395;51.382;7.074;2023-07-16T10:30:00;100204.28;;;30.53;27.46
80938;BME280;70395;51.382;7.074;2023-07-16T10:32:31;100214.56;;;30.48;28.02
80938;BME280;70395;51.382;7.074;2023-07-16T10:34:57;100213.69;;;30.52;28.67
80938;BME280;70395;51.382;7.074;2023-07-16T10:37:24;100210.91;;;31.08;27.74
80938;BME280;70395;51.382;7.074;2023-07-16T10:39:57;100214.38;;;31.65;27.53
80938;BME280;70395;51.382;7.074;2023-07-16T10:42:24;100222.72;;;31.89;26.83
80938;BME280;70395;51.382;7.074;2023-07-16T10:44:58;100217.19;;;31.60;27.18
80938;BME280;70395;51.382;7.074;2023-07-16T10:47:37;100214.84;;;31.37;27.57
80938;BME280;70395;51.382;7.074;2023-07-16T10:50:08;100212.97;;;31.67;27.35
80938;BME280;70395;51.382;7.074;2023-07-16T10:52:36;100221.38;;;31.87;27.55
80938;BME280;70395;51.382;7.074;2023-07-16T10:55:03;100217.66;;;32.27;26.46
80938;BME280;70395;51.382;7.074;2023-07-16T10:57:29;100222.41;;;32.45;26.76
80938;BME280;70395;51.382;7.074;2023-07-16T10:59:58;100211.38;;;32.59;25.90
80938;BME280;70395;51.382;7.074;2023-07-16T11:02:25;100218.00;;;33.41;25.92
80938;BME280;70395;51.382;7.074;2023-07-16T11:04:52;100204.25;;;34.12;25.08
80938;BME280;70395;51.382;7.074;2023-07-16T11:07:23;100220.91;;;34.82;24.60
80938;BME280;70395;51.382;7.074;2023-07-16T11:09:53;100215.31;;;35.66;22.99
80938;BME280;70395;51.382;7.074;2023-07-16T11:12:22;100214.06;;;35.81;22.66
80938;BME280;70395;51.382;7.074;2023-07-16T11:14:52;100221.22;;;35.96;22.34
80938;BME280;70395;51.382;7.074;2023-07-16T11:17:19;100217.50;;;36.10;21.92
80938;BME280;70395;51.382;7.074;2023-07-16T11:19:47;100221.63;;;36.21;22.09
80938;BME280;70395;51.382;7.074;2023-07-16T11:22:14;100221.19;;;36.28;21.66
80938;BME280;70395;51.382;7.074;2023-07-16T11:24:47;100224.13;;;36.32;21.79
80938;BME280;70395;51.382;7.074;2023-07-16T11:27:19;100218.81;;;36.71;21.64
80938;BME280;70395;51.382;7.074;2023-07-16T11:29:57;100226.22;;;37.02;21.21
80938;BME280;70395;51.382;7.074;2023-07-16T11:32:30;100233.06;;;36.51;21.37
80938;BME280;70395;51.382;7.074;2023-07-16T11:34:58;100227.78;;;35.68;22.05
80938;BME280;70395;51.382;7.074;2023-07-16T11:37:25;100245.44;;;34.94;22.87
80938;BME280;70395;51.382;7.074;2023-07-16T11:40:18;100226.81;;;34.24;22.81
80938;BME280;70395;51.382;7.074;2023-07-16T11:42:45;100237.31;;;33.66;23.01
80938;BME280;70395;51.382;7.074;2023-07-16T11:45:18;100230.88;;;32.98;23.48
80938;BME280;70395;51.382;7.074;2023-07-16T11:47:44;100230.72;;;33.09;24.12
80938;BME280;70395;51.382;7.074;2023-07-16T11:50:10;100229.53;;;33.34;23.30
80938;BME280;70395;51.382;7.074;2023-07-16T11:52:38;100238.59;;;33.21;23.87
80938;BME280;70395;51.382;7.074;2023-07-16T11:55:04;100242.34;;;32.91;24.08
80938;BME280;70395;51.382;7.074;2023-07-16T11:57:31;100238.84;;;32.61;24.69
80938;BME280;70395;51.382;7.074;2023-07-16T11:59:56;100236.56;;;32.68;24.22
80938;BME280;70395;51.382;7.074;2023-07-16T12:02:26;100243.63;;;33.38;23.62
80938;BME280;70395;51.382;7.074;2023-07-16T12:04:52;100240.34;;;33.69;23.60
80938;BME280;70395;51.382;7.074;2023-07-16T12:07:36;100242.53;;;33.53;23.94
80938;BME280;70395;51.382;7.074;2023-07-16T12:10:05;100242.13;;;33.07;23.94
80938;BME280;70395;51.382;7.074;2023-07-16T12:12:32;100242.53;;;32.56;24.80
80938;BME280;70395;51.382;7.074;2023-07-16T12:15:00;100245.06;;;32.53;25.08
80938;BME280;70395;51.382;7.074;2023-07-16T12:17:26;100237.19;;;33.43;24.02
80938;BME280;70395;51.382;7.074;2023-07-16T12:19:51;100241.56;;;34.11;24.10
80938;BME280;70395;51.382;7.074;2023-07-16T12:22:18;100239.88;;;33.81;23.46
80938;BME280;70395;51.382;7.074;2023-07-16T12:24:45;100242.38;;;33.30;23.75
80938;BME280;70395;51.382;7.074;2023-07-16T12:27:11;100236.13;;;32.80;23.93
80938;BME280;70395;51.382;7.074;2023-07-16T12:29:37;100249.44;;;32.34;24.74
80938;BME280;70395;51.382;7.074;2023-07-16T12:32:03;100240.66;;;31.97;25.11
80938;BME280;70395;51.382;7.074;2023-07-16T12:34:29;100248.53;;;31.55;25.69
80938;BME280;70395;51.382;7.074;2023-07-16T12:36:55;100255.34;;;31.28;26.28
80938;BME280;70395;51.382;7.074;2023-07-16T12:39:21;100255.28;;;31.38;26.16
80938;BME280;70395;51.382;7.074;2023-07-16T12:41:47;100247.72;;;31.49;26.46
80938;BME280;70395;51.382;7.074;2023-07-16T12:44:13;100255.06;;;31.29;26.24
80938;BME280;70395;51.382;7.074;2023-07-16T12:46:38;100252.25;;;30.94;26.63
80938;BME280;70395;51.382;7.074;2023-07-16T12:49:04;100248.72;;;30.73;26.86
80938;BME280;70395;51.382;7.074;2023-07-16T12:51:30;100253.94;;;30.85;26.92
80938;BME280;70395;51.382;7.074;2023-07-16T12:53:56;100254.75;;;30.85;27.69
80938;BME280;70395;51.382;7.074;2023-07-16T12:56:22;100258.13;;;30.77;27.14
80938;BME280;70395;51.382;7.074;2023-07-16T12:58:48;100262.63;;;30.62;26.48
80938;BME280;70395;51.382;7.074;2023-07-16T13:01:14;100257.97;;;30.42;26.41
80938;BME280;70395;51.382;7.074;2023-07-16T13:03:40;100260.19;;;30.29;27.10
80938;BME280;70395;51.382;7.074;2023-07-16T13:06:05;100265.44;;;30.41;26.30